createdAt,value
2018-03-27T00:00:17.778Z,38.50
2018-03-27T00:01:17.750Z,37.40
2018-03-27T00:02:17.739Z,38.90
2018-03-27T00:03:17.719Z,40.40
2018-03-27T00:04:17.702Z,37.20
2018-03-27T00:05:17.718Z,37.10
2018-03-27T00:06:17.659Z,37.80
2018-03-27T00:07:17.640Z,36.70
2018-03-27T00:08:17.626Z,36.50
2018-03-27T00:09:17.612Z,37.40
2018-03-27T00:10:17.586Z,38.70
2018-03-27T00:11:17.564Z,36.20
2018-03-27T00:12:17.549Z,41.00
2018-03-27T00:13:17.529Z,37.50
2018-03-27T00:14:17.519Z,37.80
2018-03-27T00:15:17.489Z,38.10
2018-03-27T00:16:17.469Z,40.50
2018-03-27T00:17:17.450Z,37.00
2018-03-27T00:18:17.429Z,36.10
2018-03-27T00:19:17.408Z,38.80
2018-03-27T00:20:17.389Z,39.70
2018-03-27T00:21:17.368Z,40.70
2018-03-27T00:22:17.354Z,38.80
2018-03-27T00:23:17.346Z,38.90
2018-03-27T00:24:17.312Z,38.30
2018-03-27T00:25:17.291Z,38.60
2018-03-27T00:26:17.277Z,39.60
2018-03-27T00:27:17.258Z,41.50
2018-03-27T00:28:17.242Z,38.80
2018-03-27T00:29:17.214Z,41.60
2018-03-27T00:30:17.199Z,36.50
2018-03-27T00:31:17.178Z,36.60
2018-03-27T00:32:17.162Z,39.10
2018-03-27T00:33:17.138Z,39.50
2018-03-27T00:34:17.118Z,42.50
2018-03-27T00:35:17.106Z,39.60
2018-03-27T00:36:17.083Z,38.50
2018-03-27T00:37:17.075Z,39.30
2018-03-27T00:38:17.043Z,41.90
2018-03-27T00:39:17.030Z,38.80
2018-03-27T00:40:17.007Z,39.20
2018-03-27T00:41:16.988Z,41.30
2018-03-27T00:42:16.966Z,39.60
2018-03-27T00:43:16.950Z,43.00
2018-03-27T00:44:16.979Z,41.00
2018-03-27T00:45:16.909Z,41.30
2018-03-27T00:46:16.891Z,41.10
2018-03-27T00:47:16.873Z,42.00
2018-03-27T00:48:16.860Z,43.90
2018-03-27T00:49:16.842Z,40.10
2018-03-27T00:50:16.819Z,42.50
2018-03-27T00:51:16.799Z,42.40
2018-03-27T00:52:16.777Z,43.90
2018-03-27T00:53:16.760Z,46.20
2018-03-27T00:54:16.739Z,41.40
2018-03-27T00:55:16.719Z,40.50
2018-03-27T00:56:16.700Z,45.60
2018-03-27T00:57:16.680Z,43.60
2018-03-27T00:58:16.666Z,42.70
2018-03-27T00:59:16.646Z,39.60
2018-03-27T01:00:16.675Z,44.80
2018-03-27T01:01:16.604Z,43.50
2018-03-27T01:02:16.589Z,40.40
2018-03-27T01:03:16.573Z,42.40
2018-03-27T01:04:16.558Z,42.60
2018-03-27T01:05:16.527Z,44.70
2018-03-27T01:06:16.560Z,41.30
2018-03-27T01:07:16.492Z,44.80
2018-03-27T01:08:16.471Z,44.30
2018-03-27T01:09:16.457Z,40.60
2018-03-27T01:10:16.489Z,41.30
2018-03-27T01:11:16.416Z,42.80
2018-03-27T01:12:16.446Z,43.00
2018-03-27T01:13:16.377Z,43.30
2018-03-27T01:14:16.357Z,45.40
2018-03-27T01:15:16.588Z,44.60
2018-03-27T01:16:16.320Z,44.50
2018-03-27T01:17:16.302Z,43.80
2018-03-27T01:18:16.280Z,44.20
2018-03-27T01:19:16.263Z,43.50
2018-03-27T01:20:16.241Z,44.10
2018-03-27T01:21:16.227Z,43.50
2018-03-27T01:22:16.209Z,44.40
2018-03-27T01:23:16.189Z,44.20
2018-03-27T01:24:16.170Z,42.60
2018-03-27T01:25:16.147Z,45.60
2018-03-27T01:26:16.129Z,41.10
2018-03-27T01:27:16.108Z,45.50
2018-03-27T01:28:16.093Z,43.00
2018-03-27T01:29:16.069Z,45.90
2018-03-27T01:30:16.068Z,46.10
2018-03-27T01:31:16.034Z,44.90
2018-03-27T01:32:16.013Z,44.60
2018-03-27T01:33:15.999Z,42.00
2018-03-27T01:34:15.976Z,43.00
2018-03-27T01:35:15.960Z,43.90
2018-03-27T01:36:15.939Z,46.50
2018-03-27T01:37:15.919Z,44.60
2018-03-27T01:38:15.899Z,44.00
2018-03-27T01:39:15.881Z,42.80
2018-03-27T01:40:15.863Z,43.30
2018-03-27T01:41:15.841Z,46.60
2018-03-27T01:42:15.825Z,49.60
2018-03-27T01:43:15.820Z,46.90
2018-03-27T01:44:15.790Z,48.30
2018-03-27T01:45:15.776Z,46.20
2018-03-27T01:46:15.751Z,46.10
2018-03-27T01:47:15.733Z,47.50
2018-03-27T01:48:15.710Z,47.90
2018-03-27T01:49:15.701Z,47.50
2018-03-27T01:50:15.682Z,50.30
2018-03-27T01:51:15.660Z,48.20
2018-03-27T01:52:15.636Z,50.90
2018-03-27T01:53:15.620Z,49.80
2018-03-27T01:54:15.600Z,50.00
2018-03-27T01:55:15.579Z,44.90
2018-03-27T01:56:15.559Z,48.70
2018-03-27T01:57:15.540Z,52.20
2018-03-27T01:58:15.520Z,50.80
2018-03-27T01:59:15.504Z,49.10
2018-03-27T02:00:15.480Z,50.30
2018-03-27T02:01:15.465Z,50.30
2018-03-27T02:02:15.449Z,52.20
2018-03-27T02:03:15.432Z,50.60
2018-03-27T02:04:15.405Z,53.30
2018-03-27T02:05:15.418Z,52.40
2018-03-27T02:06:15.370Z,49.30
2018-03-27T02:07:15.349Z,52.80
2018-03-27T02:08:15.336Z,47.70
2018-03-27T02:09:15.309Z,48.80
2018-03-27T02:10:15.291Z,49.00
2018-03-27T02:11:15.283Z,51.30
2018-03-27T02:12:15.352Z,52.40
2018-03-27T02:13:15.240Z,51.90
2018-03-27T02:14:15.216Z,50.80
2018-03-27T02:15:15.199Z,51.20
2018-03-27T02:16:15.178Z,50.50
2018-03-27T02:17:15.157Z,51.50
2018-03-27T02:18:15.186Z,50.00
2018-03-27T02:19:15.120Z,51.40
2018-03-27T02:20:15.099Z,51.70
2018-03-27T02:21:15.079Z,54.90
2018-03-27T02:22:15.060Z,53.20
2018-03-27T02:23:15.039Z,51.60
2018-03-27T02:24:15.020Z,52.00
2018-03-27T02:25:15.009Z,52.40
2018-03-27T02:26:14.982Z,55.70
2018-03-27T02:27:14.970Z,57.60
2018-03-27T02:28:14.996Z,56.00
2018-03-27T02:29:14.930Z,55.10
2018-03-27T02:30:14.909Z,55.40
2018-03-27T02:31:14.887Z,55.40
2018-03-27T02:32:14.871Z,57.90
2018-03-27T02:33:14.851Z,51.50
2018-03-27T02:34:14.828Z,53.30
2018-03-27T02:35:14.811Z,53.30
2018-03-27T02:36:14.790Z,51.70
2018-03-27T02:37:14.771Z,52.40
2018-03-27T02:38:14.804Z,52.90
2018-03-27T02:39:14.742Z,50.50
2018-03-27T02:40:14.722Z,53.60
2018-03-27T02:41:14.703Z,55.00
2018-03-27T02:42:14.681Z,54.20
2018-03-27T02:43:14.663Z,57.70
2018-03-27T02:44:14.641Z,57.00
2018-03-27T02:45:14.619Z,50.60
2018-03-27T02:46:14.598Z,53.70
2018-03-27T02:47:14.580Z,54.20
2018-03-27T02:48:14.561Z,52.40
2018-03-27T02:49:14.541Z,52.40
2018-03-27T02:50:14.527Z,58.80
2018-03-27T02:51:14.501Z,60.00
2018-03-27T02:52:14.485Z,58.30
2018-03-27T02:53:14.476Z,58.30
2018-03-27T02:54:14.451Z,58.20
2018-03-27T02:55:14.427Z,54.40
2018-03-27T02:56:14.407Z,53.40
2018-03-27T02:57:14.391Z,55.80
2018-03-27T02:58:14.381Z,57.50
2018-03-27T02:59:14.346Z,56.30
2018-03-27T03:00:14.331Z,60.30
2018-03-27T03:01:14.310Z,58.40
2018-03-27T03:02:14.289Z,54.30
2018-03-27T03:03:14.272Z,57.30
2018-03-27T03:04:14.249Z,56.40
2018-03-27T03:05:14.229Z,57.00
2018-03-27T03:06:14.231Z,59.30
2018-03-27T03:07:14.200Z,58.20
2018-03-27T03:08:14.181Z,60.20
2018-03-27T03:09:14.152Z,58.90
2018-03-27T03:10:14.140Z,56.70
2018-03-27T03:11:14.121Z,60.20
2018-03-27T03:12:14.101Z,59.50
2018-03-27T03:13:14.082Z,57.50
2018-03-27T03:14:14.061Z,59.40
2018-03-27T03:15:14.036Z,61.00
2018-03-27T03:16:14.021Z,56.60
2018-03-27T03:17:14.001Z,60.90
2018-03-27T03:18:13.981Z,59.40
2018-03-27T03:19:13.964Z,58.30
2018-03-27T03:20:13.999Z,58.80
2018-03-27T03:21:13.920Z,57.40
2018-03-27T03:22:13.951Z,57.30
2018-03-27T03:23:13.884Z,58.70
2018-03-27T03:24:13.869Z,55.60
2018-03-27T03:25:13.843Z,52.00
2018-03-27T03:26:13.873Z,57.00
2018-03-27T03:27:13.806Z,55.60
2018-03-27T03:28:13.811Z,51.90
2018-03-27T03:29:13.769Z,57.20
2018-03-27T03:30:13.754Z,52.90
2018-03-27T03:31:13.732Z,55.80
2018-03-27T03:32:13.710Z,55.10
2018-03-27T03:33:13.685Z,55.30
2018-03-27T03:34:13.671Z,53.00
2018-03-27T03:35:13.651Z,57.60
2018-03-27T03:36:13.635Z,57.00
2018-03-27T03:37:13.611Z,53.20
2018-03-27T03:38:13.593Z,55.20
2018-03-27T03:39:13.569Z,56.20
2018-03-27T03:40:13.621Z,59.90
2018-03-27T03:41:13.529Z,59.20
2018-03-27T03:42:13.510Z,58.30
2018-03-27T03:43:13.492Z,57.80
2018-03-27T03:44:13.472Z,54.40
2018-03-27T03:45:13.462Z,52.70
2018-03-27T03:46:13.489Z,58.40
2018-03-27T03:47:13.420Z,53.50
2018-03-27T03:48:13.410Z,55.40
2018-03-27T03:49:13.388Z,56.10
2018-03-27T03:50:13.361Z,56.10
2018-03-27T03:51:13.339Z,57.00
2018-03-27T03:52:13.369Z,53.60
2018-03-27T03:53:13.293Z,57.60
2018-03-27T03:54:13.277Z,53.10
2018-03-27T03:55:13.262Z,60.30
2018-03-27T03:56:13.242Z,58.10
2018-03-27T03:57:13.233Z,52.20
2018-03-27T03:58:13.204Z,51.60
2018-03-27T03:59:13.180Z,53.70
2018-03-27T04:00:13.161Z,53.20
2018-03-27T04:01:13.141Z,54.50
2018-03-27T04:02:13.120Z,52.30
2018-03-27T04:03:13.100Z,57.50
2018-03-27T04:04:13.083Z,57.30
2018-03-27T04:05:13.060Z,55.40
2018-03-27T04:06:13.045Z,57.00
2018-03-27T04:07:13.024Z,53.60
2018-03-27T04:08:13.010Z,49.80
2018-03-27T04:09:12.990Z,50.50
2018-03-27T04:10:12.963Z,55.70
2018-03-27T04:11:12.946Z,54.50
2018-03-27T04:12:12.923Z,54.70
2018-03-27T04:13:12.909Z,50.50
2018-03-27T04:14:12.895Z,49.60
2018-03-27T04:15:12.866Z,49.70
2018-03-27T04:16:12.848Z,52.30
2018-03-27T04:17:12.833Z,49.80
2018-03-27T04:18:12.809Z,51.70
2018-03-27T04:19:12.790Z,53.20
2018-03-27T04:20:12.772Z,51.80
2018-03-27T04:21:12.752Z,50.30
2018-03-27T04:22:12.727Z,55.20
2018-03-27T04:23:12.707Z,53.30
2018-03-27T04:24:12.689Z,51.60
2018-03-27T04:25:12.672Z,49.10
2018-03-27T04:26:12.659Z,51.50
2018-03-27T04:27:12.634Z,50.30
2018-03-27T04:28:12.609Z,50.70
2018-03-27T04:29:12.590Z,50.50
2018-03-27T04:30:12.570Z,51.20
2018-03-27T04:31:12.554Z,50.80
2018-03-27T04:32:12.539Z,51.20
2018-03-27T04:33:12.510Z,55.10
2018-03-27T04:34:12.500Z,51.90
2018-03-27T04:35:12.483Z,50.70
2018-03-27T04:36:12.458Z,49.20
2018-03-27T04:37:12.434Z,49.40
2018-03-27T04:38:12.420Z,49.60
2018-03-27T04:39:12.397Z,49.00
2018-03-27T04:40:12.382Z,51.70
2018-03-27T04:41:12.354Z,55.60
2018-03-27T04:42:12.338Z,58.60
2018-03-27T04:43:12.319Z,57.10
2018-03-27T04:44:12.349Z,53.30
2018-03-27T04:45:12.281Z,52.00
2018-03-27T04:46:12.311Z,51.50
2018-03-27T04:47:12.251Z,52.60
2018-03-27T04:48:12.312Z,53.10
2018-03-27T04:49:12.202Z,54.70
2018-03-27T04:50:12.227Z,52.50
2018-03-27T04:51:12.161Z,53.60
2018-03-27T04:52:12.139Z,54.70
2018-03-27T04:53:12.121Z,58.70
2018-03-27T04:54:12.199Z,56.40
2018-03-27T04:55:12.091Z,53.30
2018-03-27T04:56:12.063Z,53.70
2018-03-27T04:57:12.038Z,57.60
2018-03-27T04:58:12.075Z,55.10
2018-03-27T04:59:12.000Z,53.00
2018-03-27T05:00:12.077Z,54.50
2018-03-27T05:01:11.953Z,54.90
2018-03-27T05:02:12.000Z,55.70
2018-03-27T05:03:11.914Z,57.60
2018-03-27T05:04:12.053Z,55.40
2018-03-27T05:05:11.872Z,55.00
2018-03-27T05:06:11.852Z,54.50
2018-03-27T05:07:11.838Z,53.60
2018-03-27T05:08:11.862Z,53.80
2018-03-27T05:09:11.794Z,53.60
2018-03-27T05:10:11.776Z,53.90
2018-03-27T05:11:11.754Z,50.50
2018-03-27T05:12:11.740Z,52.00
2018-03-27T05:13:11.725Z,55.00
2018-03-27T05:14:11.695Z,50.80
2018-03-27T05:15:11.677Z,56.90
2018-03-27T05:16:11.653Z,55.30
2018-03-27T05:17:11.639Z,53.20
2018-03-27T05:18:11.614Z,53.00
2018-03-27T05:19:11.598Z,54.00
2018-03-27T05:20:11.576Z,52.40
2018-03-27T05:21:11.560Z,56.70
2018-03-27T05:22:11.536Z,52.40
2018-03-27T05:23:11.516Z,51.30
2018-03-27T05:24:11.495Z,52.40
2018-03-27T05:25:11.472Z,55.40
2018-03-27T05:26:11.451Z,53.60
2018-03-27T05:27:11.432Z,56.60
2018-03-27T05:28:11.415Z,56.60
2018-03-27T05:29:11.392Z,50.30
2018-03-27T05:30:11.370Z,57.00
2018-03-27T05:31:11.351Z,55.50
2018-03-27T05:32:11.338Z,56.30
2018-03-27T05:33:11.310Z,56.00
2018-03-27T05:34:11.296Z,56.40
2018-03-27T05:35:11.270Z,52.80
2018-03-27T05:36:11.252Z,51.90
2018-03-27T05:37:11.230Z,58.90
2018-03-27T05:38:11.210Z,54.80
2018-03-27T05:39:11.191Z,56.70
2018-03-27T05:40:11.174Z,55.30
2018-03-27T05:41:11.148Z,58.80
2018-03-27T05:42:11.129Z,54.90
2018-03-27T05:43:11.109Z,52.90
2018-03-27T05:44:11.090Z,55.60
2018-03-27T05:45:11.069Z,57.40
2018-03-27T05:46:11.053Z,57.00
2018-03-27T05:47:11.031Z,55.70
2018-03-27T05:48:11.011Z,58.40
2018-03-27T05:49:10.991Z,55.10
2018-03-27T05:50:10.966Z,56.50
2018-03-27T05:51:10.951Z,54.40
2018-03-27T05:52:10.928Z,57.70
2018-03-27T05:53:10.910Z,57.50
2018-03-27T05:54:10.888Z,56.60
2018-03-27T05:55:10.871Z,59.50
2018-03-27T05:56:10.849Z,58.20
2018-03-27T05:57:10.830Z,57.50
2018-03-27T05:58:10.810Z,57.40
2018-03-27T05:59:10.798Z,53.60
2018-03-27T06:00:10.772Z,57.70
2018-03-27T06:01:10.750Z,58.70
2018-03-27T06:02:10.781Z,58.70
2018-03-27T06:03:10.714Z,58.50
2018-03-27T06:04:10.692Z,55.50
2018-03-27T06:05:10.671Z,58.30
2018-03-27T06:06:10.650Z,57.80
2018-03-27T06:07:10.635Z,58.10
2018-03-27T06:08:10.651Z,54.90
2018-03-27T06:09:10.589Z,58.10
2018-03-27T06:10:10.565Z,63.20
2018-03-27T06:11:10.554Z,54.40
2018-03-27T06:12:10.533Z,55.70
2018-03-27T06:13:10.513Z,55.40
2018-03-27T06:14:10.494Z,59.10
2018-03-27T06:15:10.469Z,55.30
2018-03-27T06:16:10.455Z,55.00
2018-03-27T06:17:10.431Z,57.20
2018-03-27T06:18:10.410Z,53.90
2018-03-27T06:19:10.389Z,51.30
2018-03-27T06:20:10.369Z,56.00
2018-03-27T06:21:10.350Z,51.00
2018-03-27T06:22:10.329Z,53.20
2018-03-27T06:23:10.305Z,51.10
2018-03-27T06:24:10.302Z,51.40
2018-03-27T06:25:10.329Z,51.70
2018-03-27T06:26:10.258Z,53.30
2018-03-27T06:27:10.235Z,52.70
2018-03-27T06:28:10.210Z,51.60
2018-03-27T06:29:10.189Z,51.70
2018-03-27T06:30:10.217Z,52.30
2018-03-27T06:31:10.149Z,52.20
2018-03-27T06:32:10.280Z,52.20
2018-03-27T06:33:10.111Z,53.00
2018-03-27T06:34:10.101Z,51.60
2018-03-27T06:35:10.070Z,50.80
2018-03-27T06:36:10.053Z,49.50
2018-03-27T06:37:10.029Z,49.30
2018-03-27T06:38:10.023Z,52.50
2018-03-27T06:39:09.999Z,52.00
2018-03-27T06:40:09.970Z,49.90
2018-03-27T06:41:09.949Z,56.70
2018-03-27T06:42:09.969Z,53.80
2018-03-27T06:43:09.913Z,53.30
2018-03-27T06:44:09.896Z,49.00
2018-03-27T06:45:09.872Z,49.10
2018-03-27T06:46:09.852Z,48.80
2018-03-27T06:47:09.832Z,49.70
2018-03-27T06:48:09.821Z,50.20
2018-03-27T06:49:09.797Z,51.40
2018-03-27T06:50:09.783Z,52.80
2018-03-27T06:51:09.761Z,49.90
2018-03-27T06:52:09.741Z,52.00
2018-03-27T06:53:09.724Z,53.50
2018-03-27T06:54:09.702Z,51.40
2018-03-27T06:55:09.677Z,50.10
2018-03-27T06:56:09.664Z,48.00
2018-03-27T06:57:09.643Z,50.50
2018-03-27T06:58:09.623Z,48.70
2018-03-27T06:59:09.600Z,51.00
2018-03-27T07:00:09.585Z,48.10
2018-03-27T07:01:09.570Z,47.50
2018-03-27T07:02:09.589Z,49.30
2018-03-27T07:03:09.543Z,47.80
2018-03-27T07:04:09.512Z,48.00
2018-03-27T07:05:09.491Z,43.30
2018-03-27T07:06:09.500Z,46.00
2018-03-27T07:07:09.487Z,44.70
2018-03-27T07:08:09.438Z,44.70
2018-03-27T07:09:09.419Z,44.60
2018-03-27T07:10:09.400Z,43.80
2018-03-27T07:11:09.416Z,44.10
2018-03-27T07:12:09.413Z,47.10
2018-03-27T07:13:09.378Z,45.50
2018-03-27T07:14:09.339Z,48.00
2018-03-27T07:15:09.317Z,43.80
2018-03-27T07:16:09.301Z,46.30
2018-03-27T07:17:09.291Z,49.20
2018-03-27T07:18:09.266Z,45.30
2018-03-27T07:19:09.252Z,47.90
2018-03-27T07:20:09.242Z,44.30
2018-03-27T07:21:09.224Z,47.50
2018-03-27T07:22:09.205Z,44.60
2018-03-27T07:23:09.188Z,47.10
2018-03-27T07:24:09.264Z,46.20
2018-03-27T07:25:09.155Z,47.10
2018-03-27T07:26:09.249Z,48.40
2018-03-27T07:27:09.131Z,47.00
2018-03-27T07:28:09.225Z,43.90
2018-03-27T07:29:09.105Z,49.20
2018-03-27T07:30:09.230Z,48.10
2018-03-27T07:31:09.112Z,49.40
2018-03-27T07:32:09.050Z,47.70
2018-03-27T07:33:09.034Z,46.50
2018-03-27T07:34:09.072Z,46.80
2018-03-27T07:35:08.999Z,46.20
2018-03-27T07:36:09.149Z,48.00
2018-03-27T07:37:08.969Z,48.60
2018-03-27T07:38:08.955Z,46.20
2018-03-27T07:39:08.937Z,50.30
2018-03-27T07:40:08.924Z,51.20
2018-03-27T07:41:08.932Z,57.00
2018-03-27T07:42:08.885Z,54.80
2018-03-27T07:43:08.878Z,56.40
2018-03-27T07:44:08.919Z,54.50
2018-03-27T07:45:08.848Z,56.20
2018-03-27T07:46:08.918Z,57.00
2018-03-27T07:47:08.799Z,57.40
2018-03-27T07:48:08.786Z,59.50
2018-03-27T07:49:08.766Z,60.80
2018-03-27T07:50:08.749Z,67.60
2018-03-27T07:51:08.725Z,60.40
2018-03-27T07:52:08.760Z,64.70
2018-03-27T07:53:08.691Z,57.40
2018-03-27T07:54:08.719Z,60.40
2018-03-27T07:55:08.658Z,63.70
2018-03-27T07:56:08.687Z,59.90
2018-03-27T07:57:08.619Z,64.00
2018-03-27T07:58:08.605Z,63.90
2018-03-27T07:59:08.580Z,64.20
2018-03-27T08:00:08.560Z,66.70
2018-03-27T08:01:08.540Z,66.10
2018-03-27T08:02:08.529Z,64.30
2018-03-27T08:03:08.510Z,69.00
2018-03-27T08:04:08.486Z,67.70
2018-03-27T08:05:08.470Z,59.10
2018-03-27T08:06:08.450Z,63.60
2018-03-27T08:07:08.430Z,62.80
2018-03-27T08:08:08.420Z,63.40
2018-03-27T08:09:08.388Z,61.10
2018-03-27T08:10:08.369Z,65.40
2018-03-27T08:11:08.420Z,67.50
2018-03-27T08:12:08.348Z,67.90
2018-03-27T08:13:08.313Z,67.40
2018-03-27T08:14:08.292Z,71.30
2018-03-27T08:15:08.274Z,67.70
2018-03-27T08:16:08.252Z,73.90
2018-03-27T08:17:08.235Z,68.40
2018-03-27T08:18:08.221Z,79.40
2018-03-27T08:19:08.204Z,72.10
2018-03-27T08:20:08.180Z,73.70
2018-03-27T08:21:08.159Z,77.70
2018-03-27T08:22:08.135Z,78.20
2018-03-27T08:23:08.119Z,73.30
2018-03-27T08:24:08.236Z,77.20
2018-03-27T08:25:08.078Z,72.20
2018-03-27T08:26:08.072Z,70.70
2018-03-27T08:27:08.044Z,70.20
2018-03-27T08:28:08.027Z,68.70
2018-03-27T08:29:08.009Z,67.30
2018-03-27T08:30:07.993Z,69.90
2018-03-27T08:31:07.970Z,79.20
2018-03-27T08:32:07.946Z,74.20
2018-03-27T08:33:07.929Z,80.40
2018-03-27T08:34:07.909Z,83.30
2018-03-27T08:35:07.904Z,86.00
2018-03-27T08:36:07.876Z,79.20
2018-03-27T08:37:07.854Z,82.30
2018-03-27T08:38:07.839Z,72.40
2018-03-27T08:39:07.820Z,82.30
2018-03-27T08:40:07.849Z,82.00
2018-03-27T08:41:07.780Z,89.40
2018-03-27T08:42:07.810Z,88.50
2018-03-27T08:43:07.740Z,85.10
2018-03-27T08:44:07.773Z,88.30
2018-03-27T08:45:07.696Z,83.60
2018-03-27T08:46:07.692Z,85.10
2018-03-27T08:47:07.661Z,84.60
2018-03-27T08:48:07.658Z,86.90
2018-03-27T08:49:07.621Z,84.90
2018-03-27T08:50:07.710Z,84.80
2018-03-27T08:51:07.586Z,85.30
2018-03-27T08:52:07.568Z,91.10
2018-03-27T08:53:07.549Z,86.20
2018-03-27T08:54:07.552Z,83.70
2018-03-27T08:55:07.506Z,86.90
2018-03-27T08:56:07.510Z,88.50
2018-03-27T08:57:07.472Z,89.60
2018-03-27T08:58:07.469Z,81.90
2018-03-27T08:59:07.436Z,82.30
2018-03-27T09:00:07.420Z,81.30
2018-03-27T09:01:07.402Z,78.40
2018-03-27T09:02:07.432Z,79.40
2018-03-27T09:03:07.372Z,80.50
2018-03-27T09:04:07.451Z,77.60
2018-03-27T09:05:07.334Z,78.30
2018-03-27T09:06:07.366Z,73.90
2018-03-27T09:07:07.303Z,76.70
2018-03-27T09:08:07.286Z,77.70
2018-03-27T09:09:07.269Z,76.60
2018-03-27T09:10:07.250Z,80.50
2018-03-27T09:11:07.232Z,76.10
2018-03-27T09:12:07.221Z,72.60
2018-03-27T09:13:07.217Z,74.90
2018-03-27T09:14:07.203Z,68.00
2018-03-27T09:15:07.228Z,67.70
2018-03-27T09:16:07.171Z,68.90
2018-03-27T09:17:07.162Z,65.50
2018-03-27T09:18:07.151Z,69.20
2018-03-27T09:19:07.142Z,62.80
2018-03-27T09:20:07.122Z,67.00
2018-03-27T09:21:07.122Z,60.30
2018-03-27T09:22:07.103Z,60.90
2018-03-27T09:23:07.090Z,62.40
2018-03-27T09:24:07.085Z,59.60
2018-03-27T09:25:07.083Z,61.10
2018-03-27T09:26:07.069Z,62.90
2018-03-27T09:27:07.068Z,62.10
2018-03-27T09:28:07.045Z,63.00
2018-03-27T09:29:07.035Z,63.90
2018-03-27T09:30:07.033Z,65.30
2018-03-27T09:31:07.025Z,64.70
2018-03-27T09:32:07.012Z,64.30
2018-03-27T09:33:07.002Z,63.70
2018-03-27T09:34:06.992Z,66.70
2018-03-27T09:35:06.987Z,72.50
2018-03-27T09:36:06.981Z,77.70
2018-03-27T09:37:06.979Z,71.40
2018-03-27T09:38:06.958Z,75.50
2018-03-27T09:39:06.951Z,72.50
2018-03-27T09:40:06.945Z,77.90
2018-03-27T09:41:06.937Z,75.70
2018-03-27T09:42:06.935Z,80.50
2018-03-27T09:43:06.917Z,84.40
2018-03-27T09:44:06.910Z,86.30
2018-03-27T09:45:06.899Z,86.60
2018-03-27T09:46:06.891Z,86.50
2018-03-27T09:47:06.895Z,83.40
2018-03-27T09:48:06.884Z,85.80
2018-03-27T09:49:06.868Z,83.60
2018-03-27T09:50:06.860Z,82.80
2018-03-27T09:51:06.851Z,82.10
2018-03-27T09:52:06.840Z,85.10
2018-03-27T09:53:06.842Z,83.10
2018-03-27T09:54:06.826Z,82.60
2018-03-27T09:55:06.816Z,88.30
2018-03-27T09:56:06.807Z,86.20
2018-03-27T09:57:06.799Z,84.70
2018-03-27T09:58:06.793Z,82.90
2018-03-27T09:59:06.783Z,79.70
2018-03-27T10:00:06.770Z,87.20
2018-03-27T10:01:06.766Z,84.80
2018-03-27T10:02:06.755Z,83.60
2018-03-27T10:03:06.746Z,81.50
2018-03-27T10:04:06.737Z,84.10
2018-03-27T10:05:06.728Z,85.10
2018-03-27T10:06:06.720Z,81.20
2018-03-27T10:07:06.711Z,82.30
2018-03-27T10:08:06.703Z,77.30
2018-03-27T10:09:06.697Z,80.90
2018-03-27T10:10:06.686Z,77.70
2018-03-27T10:11:06.673Z,80.50
2018-03-27T10:12:06.676Z,77.80
2018-03-27T10:13:06.651Z,78.00
2018-03-27T10:14:06.641Z,75.70
2018-03-27T10:15:06.630Z,75.10
2018-03-27T10:16:06.619Z,76.10
2018-03-27T10:17:06.614Z,76.20
2018-03-27T10:18:06.601Z,72.50
2018-03-27T10:19:06.591Z,80.80
2018-03-27T10:20:06.584Z,82.70
2018-03-27T10:21:06.570Z,82.20
2018-03-27T10:22:06.620Z,79.10
2018-03-27T10:23:06.551Z,77.10
2018-03-27T10:24:06.542Z,80.90
2018-03-27T10:25:06.530Z,73.00
2018-03-27T10:26:06.520Z,68.10
2018-03-27T10:27:06.509Z,65.20
2018-03-27T10:28:06.500Z,67.00
2018-03-27T10:29:06.501Z,68.60
2018-03-27T10:30:06.483Z,65.80
2018-03-27T10:31:06.472Z,64.30
2018-03-27T10:32:06.464Z,67.10
2018-03-27T10:33:06.493Z,64.40
2018-03-27T10:34:06.442Z,67.70
2018-03-27T10:35:06.431Z,65.30
2018-03-27T10:36:06.430Z,65.70
2018-03-27T10:37:06.461Z,62.40
2018-03-27T10:38:06.485Z,59.60
2018-03-27T10:39:06.392Z,60.20
2018-03-27T10:40:06.381Z,61.20
2018-03-27T10:41:06.372Z,61.80
2018-03-27T10:42:06.361Z,56.20
2018-03-27T10:43:06.348Z,54.60
2018-03-27T10:44:06.492Z,50.00
2018-03-27T10:45:06.329Z,50.00
2018-03-27T10:46:06.381Z,56.30
2018-03-27T10:47:06.300Z,54.20
2018-03-27T10:48:06.341Z,54.00
2018-03-27T10:49:06.282Z,51.70
2018-03-27T10:50:06.276Z,54.50
2018-03-27T10:51:06.260Z,50.70
2018-03-27T10:52:06.361Z,51.20
2018-03-27T10:53:06.239Z,49.30
2018-03-27T10:54:06.276Z,51.50
2018-03-27T10:55:06.214Z,48.20
2018-03-27T10:56:06.203Z,50.00
2018-03-27T10:57:06.189Z,48.10
2018-03-27T10:58:06.198Z,44.80
2018-03-27T10:59:06.169Z,42.80
2018-03-27T11:00:06.161Z,35.90
2018-03-27T11:01:06.155Z,26.60
2018-03-27T11:02:06.138Z,25.30
2018-03-27T11:03:06.125Z,28.00
2018-03-27T11:04:06.123Z,28.00
2018-03-27T11:05:06.102Z,24.80
2018-03-27T11:06:06.092Z,23.00
2018-03-27T11:07:06.077Z,20.60
2018-03-27T11:08:06.067Z,21.20
2018-03-27T11:09:06.052Z,20.70
2018-03-27T11:10:06.052Z,21.90
2018-03-27T11:11:06.034Z,21.90
2018-03-27T11:12:06.020Z,20.20
2018-03-27T11:13:06.009Z,21.20
2018-03-27T11:14:05.992Z,19.80
2018-03-27T11:15:05.982Z,20.10
2018-03-27T11:16:05.974Z,21.10
2018-03-27T11:17:05.960Z,20.00
2018-03-27T11:18:05.943Z,19.30
2018-03-27T11:19:05.933Z,20.20
2018-03-27T11:20:05.922Z,21.80
2018-03-27T11:21:05.913Z,21.00
2018-03-27T11:22:05.892Z,22.30
2018-03-27T11:23:05.878Z,22.20
2018-03-27T11:24:05.869Z,24.80
2018-03-27T11:25:05.852Z,21.20
2018-03-27T11:26:05.849Z,22.20
2018-03-27T11:27:05.835Z,21.70
2018-03-27T11:28:05.814Z,23.90
2018-03-27T11:29:05.801Z,21.90
2018-03-27T11:30:05.794Z,22.30
2018-03-27T11:31:05.773Z,22.60
2018-03-27T11:32:05.762Z,23.20
2018-03-27T11:33:05.750Z,23.50
2018-03-27T11:34:05.736Z,19.30
2018-03-27T11:35:05.723Z,22.80
2018-03-27T11:36:05.713Z,23.80
2018-03-27T11:37:05.706Z,22.00
2018-03-27T11:38:05.692Z,44.50
2018-03-27T11:39:05.680Z,60.80
2018-03-27T11:40:05.659Z,40.00
2018-03-27T11:41:05.642Z,76.50
2018-03-27T11:42:05.637Z,82.90
2018-03-27T11:43:05.621Z,54.40
2018-03-27T11:44:05.607Z,182.60
2018-03-27T11:45:05.590Z,103.60
2018-03-27T11:46:05.582Z,44.00
2018-03-27T11:47:05.561Z,70.60
2018-03-27T11:48:05.554Z,43.40
2018-03-27T11:49:05.548Z,76.70
2018-03-27T11:50:05.527Z,33.30
2018-03-27T11:51:05.515Z,21.70
2018-03-27T11:52:05.517Z,19.90
2018-03-27T11:53:05.488Z,20.80
2018-03-27T11:54:05.471Z,20.40
2018-03-27T11:55:05.458Z,19.70
2018-03-27T11:56:05.450Z,18.20
2018-03-27T11:57:05.430Z,18.80
2018-03-27T11:58:05.421Z,18.50
2018-03-27T11:59:05.405Z,18.60
2018-03-27T12:00:05.401Z,18.90
2018-03-27T12:01:05.382Z,15.50
2018-03-27T12:02:05.369Z,17.20
2018-03-27T12:03:05.359Z,17.60
2018-03-27T12:04:05.341Z,17.40
2018-03-27T12:05:05.332Z,17.70
2018-03-27T12:06:05.332Z,18.00
2018-03-27T12:07:05.310Z,16.40
2018-03-27T12:08:05.294Z,16.80
2018-03-27T12:09:05.279Z,16.90
2018-03-27T12:10:05.268Z,17.50
2018-03-27T12:11:05.251Z,17.60
2018-03-27T12:12:05.243Z,16.80
2018-03-27T12:13:05.280Z,15.90
2018-03-27T12:14:05.212Z,16.80
2018-03-27T12:15:05.204Z,15.80
2018-03-27T12:16:05.200Z,15.50
2018-03-27T12:17:05.189Z,14.60
2018-03-27T12:18:05.164Z,14.80
2018-03-27T12:19:05.160Z,14.30
2018-03-27T12:20:05.133Z,14.80
2018-03-27T12:21:05.122Z,16.20
2018-03-27T12:22:05.111Z,15.50
2018-03-27T12:23:05.094Z,15.80
2018-03-27T12:24:05.083Z,16.50
2018-03-27T12:25:05.065Z,16.10
2018-03-27T12:26:05.056Z,15.50
2018-03-27T12:27:05.046Z,15.40
2018-03-27T12:28:05.033Z,15.40
2018-03-27T12:29:05.016Z,15.80
2018-03-27T12:30:04.995Z,15.90
2018-03-27T12:31:04.984Z,16.20
2018-03-27T12:32:04.972Z,15.50
2018-03-27T12:33:04.953Z,15.90
2018-03-27T12:34:04.939Z,14.50
2018-03-27T12:35:04.940Z,15.60
2018-03-27T12:36:04.917Z,15.90
2018-03-27T12:37:04.905Z,16.00
2018-03-27T12:38:04.886Z,14.90
2018-03-27T12:39:04.868Z,13.70
2018-03-27T12:40:04.851Z,14.60
2018-03-27T12:41:04.854Z,15.30
2018-03-27T12:42:04.830Z,14.20
2018-03-27T12:43:04.812Z,15.10
2018-03-27T12:44:04.800Z,16.20
2018-03-27T12:45:04.785Z,15.00
2018-03-27T12:46:04.774Z,15.60
2018-03-27T12:47:04.755Z,16.00
2018-03-27T12:48:04.741Z,15.00
2018-03-27T12:49:04.721Z,13.90
2018-03-27T12:50:04.713Z,13.70
2018-03-27T12:51:04.687Z,13.70
2018-03-27T12:52:04.680Z,15.30